»·PEaware :: UAL717 KBOS-CYYZ

UAL717 :: KBOS-CYYZ

FLIGHT INFORMATION

Flight Status: Arrived
Operator:
United Airlines
More flights by this operator :: More flights under this callsign
Pilot: Ty S. (2873)
Aircraft: AIRBUS A330-200
(A332)
More flights by this aircraft type
Origin: KBOS Logan Intl
United States
Destination: CYYZ Toronto/Pearson Intl
Canada
More flights between these airports :: More routes between these airports
Route: HYLND4 HYLND CAM GONZZ WOZEE LINNG5
File this flight plan on PilotEdge
Remarks:
Altitude:
(Current/Filed)
38,000ft
Speed:
(Current/Filed)
450kts
Departed: 08-Jul-15 02:36 PM
Arrived: 08-Jul-15 03:47 PM
Distance/Time
Traveled:
386nm/1:10
Distance/Time
To Go:
Arrived

Flight Plot

Page will automatically refresh every two minutes.


Map Options




Map Legend


Flown Route
Filed Route
Departure Airport
Arrival Airport
Navaid (VOR, NDB)
Fix

Horizontal Profiles

Position Reports

Time Latitude Longitude Heading Altitude Ground
Speed
08-Jul-15 14:24 42.370853 -71.018610 210 33ft 0kts
08-Jul-15 14:25 42.371196 -71.018339 209 33ft 0kts
08-Jul-15 14:26 42.371441 -71.018265 140 33ft 0kts
08-Jul-15 14:27 42.371397 -71.018194 123 33ft 3kts
08-Jul-15 14:28 42.369716 -71.015166 133 33ft 14kts
08-Jul-15 14:29 42.366848 -71.012076 139 33ft 11kts
08-Jul-15 14:30 42.362999 -71.012331 121 33ft 16kts
08-Jul-15 14:31 42.360752 -71.005358 109 33ft 20kts
08-Jul-15 14:32 42.358443 -70.999284 134 33ft 18kts
08-Jul-15 14:33 42.354833 -70.994104 75 33ft 4kts
08-Jul-15 14:34 42.355337 -70.992715 345 33ft 3kts
08-Jul-15 14:35 42.361490 -71.000754 314 33ft 117kts
08-Jul-15 14:36 42.387407 -71.044640 301 2088ft 156kts
08-Jul-15 14:37 42.417413 -71.101768 333 3417ft 217kts
08-Jul-15 14:38 42.482401 -71.136771 336 5497ft 267kts
08-Jul-15 14:39 42.552104 -71.170991 339 8439ft 277kts
08-Jul-15 14:40 42.627219 -71.205017 339 10428ft 321kts
08-Jul-15 14:41 42.703900 -71.239922 339 12067ft 362kts
08-Jul-15 14:42 42.780522 -71.317512 285 14933ft 369kts
08-Jul-15 14:43 42.800885 -71.456740 280 17633ft 386kts
08-Jul-15 14:44 42.817388 -71.602914 279 20124ft 401kts
08-Jul-15 14:45 42.834010 -71.755415 278 22405ft 417kts
08-Jul-15 14:46 42.851085 -71.914351 278 24526ft 431kts
08-Jul-15 14:47 42.868456 -72.078366 278 26437ft 445kts
08-Jul-15 14:48 42.886421 -72.246286 277 28151ft 460kts
08-Jul-15 14:49 42.904324 -72.419786 277 30001ft 466kts
08-Jul-15 14:50 42.922034 -72.594528 277 31625ft 472kts
08-Jul-15 14:51 42.939438 -72.768966 278 33589ft 465kts
08-Jul-15 14:52 42.956736 -72.944997 277 34680ft 474kts
08-Jul-15 14:53 42.973045 -73.113677 277 35988ft 472kts
08-Jul-15 14:54 42.989948 -73.286829 277 37087ft 472kts
08-Jul-15 14:55 42.998199 -73.465201 272 38025ft 467kts
08-Jul-15 14:56 43.003152 -73.641448 273 38047ft 461kts
08-Jul-15 14:57 43.007925 -73.815100 272 38050ft 459kts
08-Jul-15 14:58 43.013681 -73.988716 273 38052ft 459kts
08-Jul-15 14:59 43.020623 -74.160199 273 38051ft 458kts
08-Jul-15 15:00 43.027304 -74.333405 272 38052ft 458kts
08-Jul-15 15:01 43.033568 -74.507063 272 38051ft 458kts
08-Jul-15 15:02 43.039581 -74.681186 272 38061ft 456kts
08-Jul-15 15:03 43.045225 -74.852003 272 38103ft 447kts
08-Jul-15 15:04 43.050532 -75.020654 272 38111ft 445kts
08-Jul-15 15:05 43.055961 -75.188498 272 38112ft 445kts
08-Jul-15 15:06 43.060884 -75.357309 270 38111ft 447kts
08-Jul-15 15:07 43.065485 -75.527116 270 38116ft 448kts
08-Jul-15 15:08 43.069729 -75.693071 271 38115ft 448kts
08-Jul-15 15:09 43.073835 -75.862909 272 38114ft 449kts
08-Jul-15 15:10 43.077565 -76.026833 272 38117ft 454kts
08-Jul-15 15:11 43.081556 -76.196377 272 38116ft 454kts
08-Jul-15 15:12 43.085047 -76.368528 272 38119ft 454kts
08-Jul-15 15:13 43.088174 -76.539274 272 38124ft 454kts
08-Jul-15 15:14 43.089785 -76.711767 264 38126ft 457kts
08-Jul-15 15:15 43.074712 -76.885358 265 38150ft 459kts
08-Jul-15 15:16 43.061552 -77.058935 265 38154ft 462kts
08-Jul-15 15:17 43.048444 -77.234941 263 37910ft 478kts
08-Jul-15 15:18 43.034656 -77.415043 264 36894ft 477kts
08-Jul-15 15:19 43.021438 -77.594603 264 35704ft 478kts
08-Jul-15 15:20 43.007946 -77.774724 264 34375ft 481kts
08-Jul-15 15:21 42.994083 -77.956036 264 32947ft 484kts
08-Jul-15 15:22 42.980143 -78.135768 264 31461ft 487kts
08-Jul-15 15:23 42.965904 -78.320010 265 29530ft 487kts
08-Jul-15 15:24 42.952241 -78.500565 265 26996ft 477kts
08-Jul-15 15:25 42.938886 -78.676044 267 24504ft 456kts
08-Jul-15 15:26 42.985868 -78.821797 309 22176ft 423kts
08-Jul-15 15:27 43.058101 -78.944926 311 19938ft 413kts
08-Jul-15 15:28 43.130086 -79.065106 311 17739ft 399kts
08-Jul-15 15:29 43.196759 -79.175988 310 15605ft 359kts
08-Jul-15 15:30 43.256037 -79.275438 309 13789ft 319kts
08-Jul-15 15:31 43.315305 -79.360531 334 12165ft 308kts
08-Jul-15 15:32 43.391281 -79.411189 333 11028ft 300kts
08-Jul-15 15:33 43.466132 -79.459764 333 10515ft 297kts
08-Jul-15 15:34 43.540878 -79.508083 333 9984ft 297kts
08-Jul-15 15:35 43.615592 -79.542186 1 8769ft 287kts
08-Jul-15 15:36 43.692875 -79.541356 0 7554ft 269kts
08-Jul-15 15:37 43.756930 -79.572277 318 6464ft 251kts
08-Jul-15 15:38 43.806801 -79.634728 317 5302ft 239kts
08-Jul-15 15:39 43.854536 -79.696772 316 3975ft 234kts
08-Jul-15 15:40 43.845576 -79.764932 214 2988ft 222kts
08-Jul-15 15:41 43.795675 -79.803358 155 2994ft 181kts
08-Jul-15 15:42 43.774378 -79.749718 138 2766ft 142kts
08-Jul-15 15:43 43.746247 -79.712186 136 2004ft 140kts
08-Jul-15 15:44 43.717795 -79.675415 137 1262ft 139kts
08-Jul-15 15:45 43.689958 -79.639256 137 581ft 120kts
08-Jul-15 15:46 43.680928 -79.626940 64 581ft 9kts
08-Jul-15 15:47 43.682435 -79.623028 115 581ft 10kts
08-Jul-15 15:48 43.684151 -79.620471 100 581ft 3kts
08-Jul-15 15:49 43.684150 -79.620466 100 581ft 0kts
08-Jul-15 15:50 43.684150 -79.620466 100 581ft 0kts

Navigation Log

Ident Type
Flight plan parsing failed, navigation log unavailable